Time;durP1;ratioP1;P1;durP2;ratioP2;P2;SDS_P1;SDS_P2;PMS_P1;PMS_P2;Temp;Humidity;BMP_temperature;BMP_pressure;BME280_temperature;BME280_humidity;BME280_pressure;Samples;Min_cycle;Max_cycle;Signal;HPM_P1;HPM_P2
2023/09/24 00:01:08;;;;;;;;;;;11.60;99.90;;;;;;5038412;28;20376;-62
2023/09/24 00:03:34;;;;;;;;;;;11.70;99.90;;;;;;5039603;28;20013;-64
2023/09/24 00:06:07;;;;;;;;;;;11.60;99.90;;;;;;5038731;28;20321;-64
2023/09/24 00:08:33;;;;;;;;;;;11.70;99.90;;;;;;5041553;28;19952;-64
2023/09/24 00:10:59;;;;;;;;;;;11.70;99.90;;;;;;5039276;28;19967;-64
2023/09/24 00:13:25;;;;;;;;;;;11.70;99.90;;;;;;5040576;28;20320;-65
2023/09/24 00:15:51;;;;;;;;;;;11.70;99.90;;;;;;5040138;28;19917;-64
2023/09/24 00:18:22;;;;;;;;;;;11.70;99.90;;;;;;5031182;28;20254;-64
2023/09/24 00:20:49;;;;;;;;;;;11.70;99.90;;;;;;5025698;28;19913;-65
2023/09/24 00:23:15;;;;;;;;;;;11.70;99.90;;;;;;5025958;28;19917;-64
2023/09/24 00:25:40;;;;;;;;;;;11.70;99.90;;;;;;5029412;28;19962;-64
2023/09/24 00:28:07;;;;;;;;;;;11.70;99.90;;;;;;5026408;28;19920;-64
2023/09/24 00:30:34;;;;;;;;;;;11.70;99.90;;;;;;5026754;28;19924;-64
2023/09/24 00:33:00;;;;;;;;;;;11.60;99.90;;;;;;5023722;28;20351;-65
2023/09/24 00:35:26;;;;;;;;;;;11.70;99.90;;;;;;5027729;28;19917;-63
2023/09/24 00:37:52;;;;;;;;;;;11.60;99.90;;;;;;5024810;28;19928;-63
2023/09/24 00:40:18;;;;;;;;;;;11.60;99.90;;;;;;5029057;28;19983;-63
2023/09/24 00:42:43;;;;;;;;;;;11.60;99.90;;;;;;5026347;28;19923;-63
2023/09/24 00:45:14;;;;;;;;;;;11.60;99.90;;;;;;5021180;28;19921;-62
2023/09/24 00:47:44;;;;;;;;;;;11.60;99.90;;;;;;5024860;28;20216;-63
2023/09/24 00:50:10;;;;;;;;;;;11.60;99.90;;;;;;5026794;28;19917;-63
2023/09/24 00:52:36;;;;;;;;;;;11.60;99.90;;;;;;5024901;28;19952;-63
2023/09/24 00:55:04;;;;;;;;;;;11.50;99.90;;;;;;5027463;28;20024;-63
2023/09/24 00:57:32;;;;;;;;;;;11.60;99.90;;;;;;5024719;28;19921;-63
2023/09/24 00:59:59;;;;;;;;;;;11.50;99.90;;;;;;5025094;28;19970;-63
2023/09/24 01:02:24;;;;;;;;;;;11.50;99.90;;;;;;5058455;28;19924;-63
2023/09/24 01:04:53;;;;;;;;;;;11.50;99.90;;;;;;5064848;28;19970;-63
2023/09/24 01:07:20;;;;;;;;;;;11.50;99.90;;;;;;5063875;28;19935;-64
2023/09/24 01:09:46;;;;;;;;;;;11.40;99.90;;;;;;5064875;28;19927;-63
2023/09/24 01:12:29;;;;;;;;;;;11.40;99.90;;;;;;5057103;28;19917;-64
2023/09/24 01:14:57;;;;;;;;;;;11.40;99.90;;;;;;5058491;28;19920;-64
2023/09/24 01:17:25;;;;;;;;;;;11.40;99.90;;;;;;5057408;28;19920;-64
2023/09/24 01:19:55;;;;;;;;;;;11.40;99.90;;;;;;5061001;28;19933;-64
2023/09/24 01:22:21;;;;;;;;;;;11.40;99.90;;;;;;5062655;28;20402;-64
2023/09/24 01:24:46;;;;;;;;;;;11.30;99.90;;;;;;5066329;28;19921;-64
2023/09/24 01:27:12;;;;;;;;;;;11.30;99.90;;;;;;5063932;28;19920;-64
2023/09/24 01:29:37;;;;;;;;;;;11.30;99.90;;;;;;5064981;28;19923;-62
2023/09/24 01:32:06;;;;;;;;;;;11.30;99.90;;;;;;5061840;28;19931;-63
2023/09/24 01:34:32;;;;;;;;;;;11.20;99.90;;;;;;5065566;28;19924;-63
2023/09/24 01:36:58;;;;;;;;;;;11.20;99.90;;;;;;5063274;28;19955;-63
2023/09/24 01:39:27;;;;;;;;;;;11.20;99.90;;;;;;5064864;28;20368;-63
2023/09/24 01:41:52;;;;;;;;;;;11.20;99.90;;;;;;5064961;28;20011;-63
2023/09/24 01:44:21;;;;;;;;;;;11.20;99.90;;;;;;5059666;28;19995;-63
2023/09/24 01:46:47;;;;;;;;;;;11.20;99.90;;;;;;5062113;28;20368;-63
2023/09/24 01:49:13;;;;;;;;;;;11.20;99.90;;;;;;5065754;28;19916;-63
2023/09/24 01:51:39;;;;;;;;;;;11.10;99.90;;;;;;5062854;28;19920;-63
2023/09/24 01:54:05;;;;;;;;;;;11.10;99.90;;;;;;5064996;28;19923;-63
2023/09/24 01:56:30;;;;;;;;;;;11.10;99.90;;;;;;5064177;28;19932;-63
2023/09/24 01:58:56;;;;;;;;;;;11.10;99.90;;;;;;5065404;28;20295;-63
2023/09/24 02:01:22;;;;;;;;;;;11.10;99.90;;;;;;5062353;28;19920;-63
2023/09/24 02:03:48;;;;;;;;;;;11.10;99.90;;;;;;5063107;28;20399;-63
2023/09/24 02:06:14;;;;;;;;;;;11.10;99.90;;;;;;5062489;28;19926;-63
2023/09/24 02:08:39;;;;;;;;;;;11.10;99.90;;;;;;5065501;28;19947;-62
2023/09/24 02:11:05;;;;;;;;;;;11.10;99.90;;;;;;5064916;28;19993;-63
2023/09/24 02:13:31;;;;;;;;;;;11.00;99.90;;;;;;5062040;28;19927;-63
2023/09/24 02:16:00;;;;;;;;;;;11.00;99.90;;;;;;5061557;28;20342;-63
2023/09/24 02:18:32;;;;;;;;;;;11.10;99.90;;;;;;5057499;28;19916;-62
2023/09/24 02:20:59;;;;;;;;;;;11.00;99.90;;;;;;5058109;28;19928;-63
2023/09/24 02:23:24;;;;;;;;;;;11.00;99.90;;;;;;5063499;28;19965;-63
2023/09/24 02:25:50;;;;;;;;;;;11.00;99.90;;;;;;5065006;28;19932;-62
2023/09/24 02:28:17;;;;;;;;;;;10.90;99.90;;;;;;5061096;28;19920;-63
2023/09/24 02:30:43;;;;;;;;;;;10.90;99.90;;;;;;5064254;28;19920;-63
2023/09/24 02:33:09;;;;;;;;;;;10.80;99.90;;;;;;5064238;28;19962;-63
2023/09/24 02:35:35;;;;;;;;;;;10.90;99.90;;;;;;5064452;28;19924;-63
2023/09/24 02:38:00;;;;;;;;;;;10.90;99.90;;;;;;5060923;28;19920;-63
2023/09/24 02:40:26;;;;;;;;;;;10.90;99.90;;;;;;5062638;28;20354;-63
2023/09/24 02:42:53;;;;;;;;;;;10.90;99.90;;;;;;5063313;28;20422;-63
2023/09/24 02:45:19;;;;;;;;;;;10.90;99.90;;;;;;5064574;28;19924;-63
2023/09/24 02:47:45;;;;;;;;;;;10.80;99.90;;;;;;5059188;28;19966;-62
2023/09/24 02:50:14;;;;;;;;;;;10.90;99.90;;;;;;5065892;28;20367;-63
2023/09/24 02:52:40;;;;;;;;;;;10.90;99.90;;;;;;5061947;28;19969;-63
2023/09/24 02:55:07;;;;;;;;;;;10.80;99.90;;;;;;5064635;28;19971;-62
2023/09/24 02:57:32;;;;;;;;;;;10.80;99.90;;;;;;5059735;28;19927;-63
2023/09/24 02:59:58;;;;;;;;;;;10.80;99.90;;;;;;5065340;28;19917;-63
2023/09/24 03:02:26;;;;;;;;;;;10.80;99.90;;;;;;5054211;28;20291;-63
2023/09/24 03:04:51;;;;;;;;;;;10.80;99.90;;;;;;5063986;28;19920;-63
2023/09/24 03:07:19;;;;;;;;;;;10.70;99.90;;;;;;5060065;28;19929;-63
2023/09/24 03:09:45;;;;;;;;;;;10.80;99.90;;;;;;5064612;28;19928;-63
2023/09/24 03:12:11;;;;;;;;;;;10.80;99.90;;;;;;5063514;28;19916;-63
2023/09/24 03:14:37;;;;;;;;;;;10.80;99.90;;;;;;5062970;28;19920;-63
2023/09/24 03:17:05;;;;;;;;;;;10.80;99.90;;;;;;5060929;28;20284;-63
2023/09/24 03:19:32;;;;;;;;;;;10.70;99.90;;;;;;5061536;28;19920;-63
2023/09/24 03:21:59;;;;;;;;;;;10.70;99.90;;;;;;5059705;28;20062;-63
2023/09/24 03:24:25;;;;;;;;;;;10.70;99.90;;;;;;5063441;28;20018;-62
2023/09/24 03:26:50;;;;;;;;;;;10.70;99.90;;;;;;5060406;28;20758;-63
2023/09/24 03:29:16;;;;;;;;;;;10.70;99.90;;;;;;5063276;28;19924;-63
2023/09/24 03:31:42;;;;;;;;;;;10.60;99.90;;;;;;5057442;28;19962;-63
2023/09/24 03:34:07;;;;;;;;;;;10.60;99.90;;;;;;5064505;28;19955;-62
2023/09/24 03:36:33;;;;;;;;;;;10.60;99.90;;;;;;5059903;28;19916;-63
2023/09/24 03:38:59;;;;;;;;;;;10.60;99.90;;;;;;5064120;28;20069;-63
2023/09/24 03:41:24;;;;;;;;;;;10.50;99.90;;;;;;5063672;28;19920;-64
2023/09/24 03:43:50;;;;;;;;;;;10.50;99.90;;;;;;5064857;28;19931;-63
2023/09/24 03:46:16;;;;;;;;;;;10.50;99.90;;;;;;5061976;28;19920;-63
2023/09/24 03:48:41;;;;;;;;;;;10.40;99.90;;;;;;5062729;28;19939;-63
2023/09/24 03:51:07;;;;;;;;;;;10.40;99.90;;;;;;5058114;28;20011;-64
2023/09/24 03:53:32;;;;;;;;;;;10.30;99.90;;;;;;5064387;28;19923;-64
2023/09/24 03:55:58;;;;;;;;;;;10.30;99.90;;;;;;5065402;28;20365;-64
2023/09/24 03:58:24;;;;;;;;;;;10.40;99.90;;;;;;5066294;28;19916;-63
2023/09/24 04:00:49;;;;;;;;;;;10.30;99.90;;;;;;5066015;28;20545;-64
2023/09/24 04:03:16;;;;;;;;;;;10.30;99.90;;;;;;5065464;28;20298;-63
2023/09/24 04:05:42;;;;;;;;;;;10.30;99.90;;;;;;5062349;28;20066;-62
2023/09/24 04:08:08;;;;;;;;;;;10.20;99.90;;;;;;5064508;28;20390;-63
2023/09/24 04:10:34;;;;;;;;;;;10.20;99.90;;;;;;5065360;28;20541;-64
2023/09/24 04:13:00;;;;;;;;;;;10.20;99.90;;;;;;5067269;28;19920;-64
2023/09/24 04:15:29;;;;;;;;;;;10.20;99.90;;;;;;5067625;28;19967;-64
2023/09/24 04:17:58;;;;;;;;;;;10.30;99.90;;;;;;5063865;28;19916;-63
2023/09/24 04:20:26;;;;;;;;;;;10.10;99.90;;;;;;5066226;28;19927;-63
2023/09/24 04:22:52;;;;;;;;;;;10.20;99.90;;;;;;5063278;28;19920;-63
2023/09/24 04:25:20;;;;;;;;;;;10.10;99.90;;;;;;5060911;28;20011;-64
2023/09/24 04:27:46;;;;;;;;;;;10.10;99.90;;;;;;5062907;28;19923;-63
2023/09/24 04:30:18;;;;;;;;;;;10.10;99.90;;;;;;5067388;28;19916;-63
2023/09/24 04:32:44;;;;;;;;;;;10.00;99.90;;;;;;5061333;28;19916;-64
2023/09/24 04:35:11;;;;;;;;;;;10.10;99.90;;;;;;5067653;28;19927;-63
2023/09/24 04:37:37;;;;;;;;;;;10.10;99.90;;;;;;5062361;28;19920;-63
2023/09/24 04:40:05;;;;;;;;;;;10.00;99.90;;;;;;5062750;28;19999;-64
2023/09/24 04:42:31;;;;;;;;;;;10.10;99.90;;;;;;5066053;28;19969;-64
2023/09/24 04:44:56;;;;;;;;;;;10.10;99.90;;;;;;5065867;28;19916;-64
2023/09/24 04:47:22;;;;;;;;;;;10.10;99.90;;;;;;5062731;28;19952;-63
2023/09/24 04:49:47;;;;;;;;;;;10.10;99.90;;;;;;5065391;28;19970;-64
2023/09/24 04:52:13;;;;;;;;;;;10.10;99.90;;;;;;5062716;28;19916;-64
2023/09/24 04:54:38;;;;;;;;;;;10.00;99.90;;;;;;5062854;28;20442;-64
2023/09/24 04:57:04;;;;;;;;;;;10.00;99.90;;;;;;5063076;28;19916;-64
2023/09/24 04:59:30;;;;;;;;;;;10.00;99.90;;;;;;5067376;28;19944;-64
2023/09/24 05:01:55;;;;;;;;;;;10.00;99.90;;;;;;5055326;28;19950;-64
2023/09/24 05:04:21;;;;;;;;;;;9.90;99.90;;;;;;5064324;28;20360;-63
2023/09/24 05:06:47;;;;;;;;;;;9.80;99.90;;;;;;5062475;28;20004;-64
2023/09/24 05:09:13;;;;;;;;;;;9.90;99.90;;;;;;5066713;28;20019;-63
2023/09/24 05:11:38;;;;;;;;;;;9.80;99.90;;;;;;5065119;28;19952;-63
2023/09/24 05:14:03;;;;;;;;;;;9.80;99.90;;;;;;5061177;28;20352;-63
2023/09/24 05:16:29;;;;;;;;;;;9.80;99.90;;;;;;5064573;28;19915;-63
2023/09/24 05:18:54;;;;;;;;;;;9.70;99.90;;;;;;5066064;28;19904;-63
2023/09/24 05:21:20;;;;;;;;;;;9.70;99.90;;;;;;5063134;28;19951;-63
2023/09/24 05:23:46;;;;;;;;;;;9.60;99.90;;;;;;5054806;28;19905;-64
2023/09/24 05:26:13;;;;;;;;;;;9.70;99.90;;;;;;5057790;28;19943;-63
2023/09/24 05:28:39;;;;;;;;;;;9.60;99.90;;;;;;5059332;28;20275;-63
2023/09/24 05:31:04;;;;;;;;;;;9.60;99.90;;;;;;5058743;28;21859;-63
2023/09/24 05:33:30;;;;;;;;;;;9.60;99.90;;;;;;5059941;28;19924;-63
2023/09/24 05:35:56;;;;;;;;;;;9.60;99.90;;;;;;5058000;28;19920;-63
2023/09/24 05:38:21;;;;;;;;;;;9.60;99.90;;;;;;5059375;28;20375;-63
2023/09/24 05:40:47;;;;;;;;;;;9.50;99.90;;;;;;5059122;28;20003;-63
2023/09/24 05:43:13;;;;;;;;;;;9.50;99.90;;;;;;5063381;28;20407;-63
2023/09/24 05:45:48;;;;;;;;;;;9.50;99.90;;;;;;5062104;28;19921;-64
2023/09/24 05:48:17;;;;;;;;;;;9.50;99.90;;;;;;5058877;28;19952;-63
2023/09/24 05:50:43;;;;;;;;;;;9.50;99.90;;;;;;5061337;28;19955;-63
2023/09/24 05:53:10;;;;;;;;;;;9.50;99.90;;;;;;5061708;28;19916;-63
2023/09/24 05:55:36;;;;;;;;;;;9.40;99.90;;;;;;5064424;28;19913;-64
2023/09/24 05:58:03;;;;;;;;;;;9.40;99.90;;;;;;5073254;28;19969;-63
2023/09/24 06:00:29;;;;;;;;;;;9.40;99.90;;;;;;5072492;28;19916;-63
2023/09/24 06:02:55;;;;;;;;;;;9.40;99.90;;;;;;5062495;28;19935;-63
2023/09/24 06:05:20;;;;;;;;;;;9.40;99.90;;;;;;5069114;28;19986;-63
2023/09/24 06:07:45;;;;;;;;;;;9.50;99.90;;;;;;5067479;28;20436;-63
2023/09/24 06:10:11;;;;;;;;;;;9.50;99.90;;;;;;5066200;28;20055;-63
2023/09/24 06:12:36;;;;;;;;;;;9.70;99.90;;;;;;5069432;28;19920;-63
2023/09/24 06:15:03;;;;;;;;;;;9.70;99.90;;;;;;5063025;28;19920;-63
2023/09/24 06:17:29;;;;;;;;;;;9.90;99.90;;;;;;5063000;28;19916;-63
2023/09/24 06:19:55;;;;;;;;;;;10.00;99.90;;;;;;5066871;28;20315;-64
2023/09/24 06:22:24;;;;;;;;;;;10.20;99.90;;;;;;5065699;28;20342;-63
2023/09/24 06:24:50;;;;;;;;;;;10.40;99.90;;;;;;5064872;28;19916;-64
2023/09/24 06:27:16;;;;;;;;;;;10.40;99.90;;;;;;5063596;28;19925;-64
2023/09/24 06:29:42;;;;;;;;;;;10.40;99.90;;;;;;5059452;28;19917;-65
2023/09/24 06:32:08;;;;;;;;;;;10.50;99.90;;;;;;5058234;28;19924;-64
2023/09/24 06:34:35;;;;;;;;;;;10.40;99.90;;;;;;5064765;28;19921;-61
2023/09/24 06:37:02;;;;;;;;;;;10.40;99.90;;;;;;5068577;28;19920;-67
2023/09/24 06:39:29;;;;;;;;;;;10.50;99.90;;;;;;5064776;28;20007;-66
2023/09/24 06:41:55;;;;;;;;;;;10.60;99.90;;;;;;5058641;28;19916;-64
2023/09/24 06:44:23;;;;;;;;;;;10.60;99.90;;;;;;5061645;28;19920;-64
2023/09/24 06:46:49;;;;;;;;;;;10.60;99.90;;;;;;5060529;28;20348;-64
2023/09/24 06:49:15;;;;;;;;;;;10.50;99.90;;;;;;5060436;28;20365;-66
2023/09/24 06:51:40;;;;;;;;;;;10.60;99.90;;;;;;5062414;28;19962;-63
2023/09/24 06:54:06;;;;;;;;;;;10.60;99.90;;;;;;5062723;28;19923;-66
2023/09/24 06:56:31;;;;;;;;;;;10.50;99.90;;;;;;5059734;28;19927;-65
2023/09/24 06:58:57;;;;;;;;;;;10.60;99.90;;;;;;5073279;28;20390;-66
2023/09/24 07:01:22;;;;;;;;;;;10.70;99.90;;;;;;5070796;28;19924;-65
2023/09/24 07:03:48;;;;;;;;;;;10.80;99.90;;;;;;5068551;28;20625;-65
2023/09/24 07:06:16;;;;;;;;;;;10.90;99.90;;;;;;5074661;28;19924;-65
2023/09/24 07:08:41;;;;;;;;;;;11.00;99.90;;;;;;5067294;28;19932;-65
2023/09/24 07:11:23;;;;;;;;;;;11.00;99.90;;;;;;5066589;28;20064;-62
2023/09/24 07:13:50;;;;;;;;;;;11.10;99.90;;;;;;5060588;28;19920;-63
2023/09/24 07:16:15;;;;;;;;;;;11.20;99.90;;;;;;5064349;28;19920;-63
2023/09/24 07:18:41;;;;;;;;;;;11.20;99.90;;;;;;5064288;28;19923;-62
2023/09/24 07:21:07;;;;;;;;;;;11.20;99.90;;;;;;5065579;28;20447;-63
2023/09/24 07:23:32;;;;;;;;;;;11.30;99.90;;;;;;5065291;28;20490;-59
2023/09/24 07:25:58;;;;;;;;;;;11.30;99.90;;;;;;5068056;28;19920;-63
2023/09/24 07:28:25;;;;;;;;;;;11.40;99.90;;;;;;5074229;28;19973;-63
2023/09/24 07:30:51;;;;;;;;;;;11.50;99.90;;;;;;5069123;28;20035;-64
2023/09/24 07:33:16;;;;;;;;;;;11.60;99.90;;;;;;5067919;28;19927;-63
2023/09/24 07:35:42;;;;;;;;;;;11.60;99.90;;;;;;5069758;28;20261;-64
2023/09/24 07:38:08;;;;;;;;;;;11.80;99.90;;;;;;5066217;28;20287;-64
2023/09/24 07:40:33;;;;;;;;;;;11.90;99.90;;;;;;5066016;28;19949;-64
2023/09/24 07:42:59;;;;;;;;;;;12.00;99.90;;;;;;5068129;28;19963;-63
2023/09/24 07:45:24;;;;;;;;;;;12.00;99.90;;;;;;5072350;28;20384;-63
2023/09/24 07:47:50;;;;;;;;;;;12.10;99.90;;;;;;5071092;28;19924;-63
2023/09/24 07:50:15;;;;;;;;;;;12.20;99.90;;;;;;5060463;28;20010;-63
2023/09/24 07:52:44;;;;;;;;;;;12.30;99.90;;;;;;5062078;28;19912;-63
2023/09/24 07:55:09;;;;;;;;;;;12.40;99.90;;;;;;5065497;28;19920;-64
2023/09/24 07:57:35;;;;;;;;;;;12.50;99.90;;;;;;5064249;28;19923;-64
2023/09/24 08:00:01;;;;;;;;;;;12.60;99.90;;;;;;5068114;28;19927;-63
2023/09/24 08:02:27;;;;;;;;;;;12.70;99.90;;;;;;5069767;28;19916;-64
2023/09/24 08:04:52;;;;;;;;;;;12.70;99.90;;;;;;5078660;28;19912;-63
2023/09/24 08:07:18;;;;;;;;;;;12.90;99.90;;;;;;5068121;28;20009;-64
2023/09/24 08:09:43;;;;;;;;;;;13.20;99.90;;;;;;5066368;28;19950;-63
2023/09/24 08:12:09;;;;;;;;;;;13.70;99.90;;;;;;5066511;28;19920;-64
2023/09/24 08:14:35;;;;;;;;;;;14.40;99.90;;;;;;5070105;28;20019;-63
2023/09/24 08:17:03;;;;;;;;;;;15.10;99.90;;;;;;5067783;28;20426;-63
2023/09/24 08:19:30;;;;;;;;;;;15.70;99.90;;;;;;5061414;28;19923;-64
2023/09/24 08:21:56;;;;;;;;;;;15.20;99.90;;;;;;5062814;28;19917;-64
2023/09/24 08:24:23;;;;;;;;;;;14.50;99.90;;;;;;5064046;28;19956;-64
2023/09/24 08:26:49;;;;;;;;;;;14.30;99.90;;;;;;5063147;28;19978;-64
2023/09/24 08:29:15;;;;;;;;;;;14.20;99.90;;;;;;5064538;28;19924;-64
2023/09/24 08:31:41;;;;;;;;;;;14.10;99.90;;;;;;5059241;28;19925;-63
2023/09/24 08:34:06;;;;;;;;;;;14.20;99.90;;;;;;5062174;28;19962;-63
2023/09/24 08:36:32;;;;;;;;;;;14.20;99.90;;;;;;5065747;28;20371;-63
2023/09/24 08:38:58;;;;;;;;;;;14.20;99.90;;;;;;5068271;28;19924;-64
2023/09/24 08:41:24;;;;;;;;;;;14.30;99.90;;;;;;5063440;28;19929;-63
2023/09/24 08:43:54;;;;;;;;;;;14.40;99.90;;;;;;5068783;28;20449;-62
2023/09/24 08:46:21;;;;;;;;;;;14.40;99.90;;;;;;5065044;28;20498;-63
2023/09/24 08:48:47;;;;;;;;;;;14.50;99.90;;;;;;5068393;28;20287;-63
2023/09/24 08:51:14;;;;;;;;;;;14.60;99.90;;;;;;5067248;28;19916;-63
2023/09/24 08:53:39;;;;;;;;;;;14.60;99.90;;;;;;5066599;28;19999;-63
2023/09/24 08:56:05;;;;;;;;;;;14.70;99.90;;;;;;5067635;28;19932;-63
2023/09/24 08:58:30;;;;;;;;;;;14.70;99.90;;;;;;5066327;28;20319;-64
2023/09/24 09:00:56;;;;;;;;;;;14.70;99.90;;;;;;5058411;28;19962;-63
2023/09/24 09:03:22;;;;;;;;;;;14.90;99.90;;;;;;5065969;28;19998;-64
2023/09/24 09:05:49;;;;;;;;;;;14.90;99.90;;;;;;5068152;28;19967;-63
2023/09/24 09:08:14;;;;;;;;;;;15.10;99.90;;;;;;5065688;28;20054;-63
2023/09/24 09:10:40;;;;;;;;;;;15.10;99.90;;;;;;5072695;28;20609;-63
2023/09/24 09:13:06;;;;;;;;;;;15.20;99.90;;;;;;5063760;28;20513;-63
2023/09/24 09:15:32;;;;;;;;;;;15.20;99.90;;;;;;5065686;28;19924;-64
2023/09/24 09:17:59;;;;;;;;;;;15.30;99.90;;;;;;5070232;28;20379;-64
2023/09/24 09:20:41;;;;;;;;;;;15.40;99.90;;;;;;5065289;28;19913;-64
2023/09/24 09:23:12;;;;;;;;;;;15.50;99.90;;;;;;5067884;28;19920;-63
2023/09/24 09:25:52;;;;;;;;;;;15.60;99.90;;;;;;5065635;28;19950;-63
2023/09/24 09:28:18;;;;;;;;;;;15.70;99.90;;;;;;5065458;28;19970;-64
2023/09/24 09:30:56;;;;;;;;;;;15.80;99.40;;;;;;5067328;28;19920;-63
2023/09/24 09:33:25;;;;;;;;;;;15.90;98.80;;;;;;5063932;28;19932;-63
2023/09/24 09:35:51;;;;;;;;;;;15.90;97.20;;;;;;5064529;28;19958;-63
2023/09/24 09:38:17;;;;;;;;;;;16.00;97.70;;;;;;5062705;28;20430;-63
2023/09/24 09:40:42;;;;;;;;;;;16.20;98.60;;;;;;5065384;28;19927;-63
2023/09/24 09:43:09;;;;;;;;;;;16.20;98.80;;;;;;5065298;28;20387;-64
2023/09/24 09:45:35;;;;;;;;;;;16.20;98.90;;;;;;5068394;28;19931;-64
2023/09/24 09:48:03;;;;;;;;;;;16.40;99.10;;;;;;5064473;28;19916;-63
2023/09/24 09:50:34;;;;;;;;;;;16.50;99.90;;;;;;5066011;28;20028;-63
2023/09/24 09:53:03;;;;;;;;;;;16.70;98.50;;;;;;5060818;28;20537;-63
2023/09/24 09:55:29;;;;;;;;;;;16.90;97.30;;;;;;5069510;28;20442;-62
2023/09/24 09:57:55;;;;;;;;;;;16.80;98.20;;;;;;5060463;28;20019;-64
2023/09/24 10:00:20;;;;;;;;;;;16.90;97.70;;;;;;5065338;28;20006;-64
2023/09/24 10:02:48;;;;;;;;;;;16.70;94.80;;;;;;5056681;28;19955;-64
2023/09/24 10:05:14;;;;;;;;;;;16.80;95.20;;;;;;5068963;28;19916;-65
2023/09/24 10:07:40;;;;;;;;;;;16.70;95.70;;;;;;5065767;28;19966;-66
2023/09/24 10:10:24;;;;;;;;;;;16.70;97.30;;;;;;5067606;28;20010;-63
2023/09/24 10:12:50;;;;;;;;;;;16.80;95.50;;;;;;5062575;28;19916;-66
2023/09/24 10:15:28;;;;;;;;;;;16.80;94.00;;;;;;5066554;28;19927;-64
2023/09/24 10:18:09;;;;;;;;;;;16.70;97.90;;;;;;5056608;28;20701;-63
2023/09/24 10:20:49;;;;;;;;;;;16.60;99.90;;;;;;5064525;28;19923;-64
2023/09/24 10:23:30;;;;;;;;;;;16.50;99.90;;;;;;5061338;28;20291;-63
2023/09/24 10:26:00;;;;;;;;;;;16.30;99.90;;;;;;5051275;28;19974;-63
2023/09/24 10:28:45;;;;;;;;;;;16.20;99.90;;;;;;5057696;28;19913;-63
2023/09/24 10:31:12;;;;;;;;;;;16.10;99.90;;;;;;5060893;28;20530;-63
2023/09/24 10:33:49;;;;;;;;;;;16.10;99.90;;;;;;5055709;28;19913;-64
2023/09/24 10:36:19;;;;;;;;;;;16.00;99.90;;;;;;5057457;28;20309;-64
2023/09/24 10:39:04;;;;;;;;;;;16.30;99.90;;;;;;5053642;28;19916;-64
2023/09/24 10:41:30;;;;;;;;;;;16.50;99.90;;;;;;5051953;28;19955;-64
2023/09/24 10:44:14;;;;;;;;;;;16.60;99.90;;;;;;5070341;28;19959;-65
2023/09/24 10:46:40;;;;;;;;;;;16.70;99.90;;;;;;5063524;28;19928;-64
2023/09/24 10:49:06;;;;;;;;;;;17.00;99.90;;;;;;5061770;28;19923;-64
2023/09/24 10:51:32;;;;;;;;;;;17.10;99.90;;;;;;5057319;28;19913;-64
2023/09/24 10:54:16;;;;;;;;;;;17.20;97.00;;;;;;5057755;28;19920;-64
2023/09/24 10:56:48;;;;;;;;;;;17.40;97.60;;;;;;5059351;28;19920;-64
2023/09/24 10:59:16;;;;;;;;;;;17.50;99.20;;;;;;5059542;28;19919;-64
2023/09/24 11:01:42;;;;;;;;;;;17.50;96.40;;;;;;5056775;28;19999;-64
2023/09/24 11:04:09;;;;;;;;;;;17.60;97.00;;;;;;5058259;28;20024;-64
2023/09/24 11:06:34;;;;;;;;;;;17.70;96.50;;;;;;5056056;28;19924;-64
2023/09/24 11:09:13;;;;;;;;;;;17.80;99.40;;;;;;5061188;28;19916;-63
2023/09/24 11:11:39;;;;;;;;;;;17.70;98.10;;;;;;5060104;28;19916;-64
2023/09/24 11:14:16;;;;;;;;;;;17.90;99.90;;;;;;5062374;28;20003;-64
2023/09/24 11:16:45;;;;;;;;;;;17.90;98.10;;;;;;5059814;28;19947;-64
2023/09/24 11:19:10;;;;;;;;;;;17.90;99.90;;;;;;5061561;28;19924;-61
2023/09/24 11:21:36;;;;;;;;;;;18.00;97.90;;;;;;5056442;28;19912;-63
2023/09/24 11:24:16;;;;;;;;;;;18.20;98.00;;;;;;5051308;28;19924;-63
2023/09/24 11:26:42;;;;;;;;;;;18.30;97.60;;;;;;5059245;28;19982;-64
2023/09/24 11:29:11;;;;;;;;;;;18.30;95.00;;;;;;5051871;28;19913;-64
2023/09/24 11:31:42;;;;;;;;;;;18.20;95.10;;;;;;5055607;28;20002;-64
2023/09/24 11:34:08;;;;;;;;;;;18.20;97.10;;;;;;5055925;28;19913;-63
2023/09/24 11:36:33;;;;;;;;;;;18.20;98.00;;;;;;5067256;28;20379;-63
2023/09/24 11:39:03;;;;;;;;;;;18.30;97.20;;;;;;5064631;28;19917;-63
2023/09/24 11:41:28;;;;;;;;;;;18.20;98.10;;;;;;5057394;28;19936;-63
2023/09/24 11:43:54;;;;;;;;;;;18.20;97.90;;;;;;5064364;28;20356;-64
2023/09/24 11:46:32;;;;;;;;;;;18.30;97.00;;;;;;5061681;28;19920;-64
2023/09/24 11:48:59;;;;;;;;;;;18.40;96.00;;;;;;5071346;28;20308;-63
2023/09/24 11:51:25;;;;;;;;;;;18.40;97.10;;;;;;5061841;28;19916;-63
2023/09/24 11:53:50;;;;;;;;;;;18.40;96.90;;;;;;5074474;28;20022;-64
2023/09/24 11:56:17;;;;;;;;;;;18.30;97.90;;;;;;5061374;28;20007;-63
2023/09/24 11:58:42;;;;;;;;;;;18.40;97.80;;;;;;5063216;28;19916;-63
2023/09/24 12:01:09;;;;;;;;;;;18.40;97.50;;;;;;5063176;28;19928;-63
2023/09/24 12:03:35;;;;;;;;;;;18.50;97.00;;;;;;5067207;28;19927;-64
2023/09/24 12:06:01;;;;;;;;;;;18.60;97.10;;;;;;5063963;28;20300;-63
2023/09/24 12:08:27;;;;;;;;;;;18.60;93.80;;;;;;5063931;28;20042;-63
2023/09/24 12:10:52;;;;;;;;;;;18.60;91.30;;;;;;5063697;28;20395;-63
2023/09/24 12:13:18;;;;;;;;;;;18.70;94.20;;;;;;5070022;28;19922;-63
2023/09/24 12:15:44;;;;;;;;;;;18.70;92.10;;;;;;5069029;28;19912;-63
2023/09/24 12:18:10;;;;;;;;;;;18.70;91.40;;;;;;5067053;28;19921;-64
2023/09/24 12:20:37;;;;;;;;;;;18.80;90.30;;;;;;5073532;28;19928;-64
2023/09/24 12:23:06;;;;;;;;;;;18.80;91.80;;;;;;5068719;28;20351;-64
2023/09/24 12:25:34;;;;;;;;;;;18.80;93.20;;;;;;5051029;28;19921;-65
2023/09/24 12:28:00;;;;;;;;;;;18.60;84.50;;;;;;5055403;28;19924;-63
2023/09/24 12:30:26;;;;;;;;;;;18.40;89.50;;;;;;5053654;28;19920;-63
2023/09/24 12:32:51;;;;;;;;;;;18.40;90.90;;;;;;5056836;28;19978;-64
2023/09/24 12:35:17;;;;;;;;;;;18.40;92.40;;;;;;5061250;28;19920;-63
2023/09/24 12:37:43;;;;;;;;;;;18.40;91.50;;;;;;5071963;28;19916;-64
2023/09/24 12:40:10;;;;;;;;;;;18.50;93.00;;;;;;5063492;28;19931;-63
2023/09/24 12:42:36;;;;;;;;;;;18.60;91.90;;;;;;5059812;28;19924;-64
2023/09/24 12:45:03;;;;;;;;;;;18.70;92.20;;;;;;5063083;28;19920;-63
2023/09/24 12:47:28;;;;;;;;;;;18.70;92.50;;;;;;5067387;28;19924;-64
2023/09/24 12:49:55;;;;;;;;;;;18.80;93.00;;;;;;5079498;28;19923;-64
2023/09/24 12:52:21;;;;;;;;;;;18.80;92.80;;;;;;5060216;28;19986;-64
2023/09/24 12:54:46;;;;;;;;;;;18.80;95.40;;;;;;5068130;28;19935;-64
2023/09/24 12:57:12;;;;;;;;;;;18.80;95.70;;;;;;5060026;28;20376;-64
2023/09/24 12:59:37;;;;;;;;;;;18.90;96.20;;;;;;5073202;28;19912;-64
2023/09/24 13:02:03;;;;;;;;;;;18.90;95.30;;;;;;5061209;28;19917;-64
2023/09/24 13:04:28;;;;;;;;;;;18.70;95.20;;;;;;5074597;28;19999;-64
2023/09/24 13:06:55;;;;;;;;;;;18.50;96.40;;;;;;5072162;28;20037;-63
2023/09/24 13:09:20;;;;;;;;;;;18.40;96.00;;;;;;5078350;28;20343;-63
2023/09/24 13:11:46;;;;;;;;;;;18.40;97.10;;;;;;5072184;28;19919;-64
2023/09/24 13:14:12;;;;;;;;;;;18.60;97.20;;;;;;5067609;28;19912;-63
2023/09/24 13:16:38;;;;;;;;;;;18.60;97.10;;;;;;5066839;28;20502;-62
2023/09/24 13:19:04;;;;;;;;;;;18.60;97.60;;;;;;5064722;28;19916;-64
2023/09/24 13:21:29;;;;;;;;;;;18.60;97.50;;;;;;5065041;28;19927;-63
2023/09/24 13:23:55;;;;;;;;;;;18.50;97.40;;;;;;5071711;28;19970;-64
2023/09/24 13:26:20;;;;;;;;;;;18.60;98.20;;;;;;5072297;28;19930;-63
2023/09/24 13:28:46;;;;;;;;;;;18.40;97.70;;;;;;5077095;28;20302;-63
2023/09/24 13:31:11;;;;;;;;;;;18.40;98.70;;;;;;5065753;28;19916;-64
2023/09/24 13:33:37;;;;;;;;;;;18.40;98.20;;;;;;5073948;28;19919;-63
2023/09/24 13:36:02;;;;;;;;;;;18.40;98.10;;;;;;5075975;28;20556;-64
2023/09/24 13:38:28;;;;;;;;;;;18.50;98.20;;;;;;5073215;28;19916;-63
2023/09/24 13:40:55;;;;;;;;;;;18.40;98.00;;;;;;5065708;28;19912;-64
2023/09/24 13:43:20;;;;;;;;;;;18.30;98.80;;;;;;5056113;28;19916;-64
2023/09/24 13:45:46;;;;;;;;;;;18.20;97.40;;;;;;5073757;28;19969;-64
2023/09/24 13:48:12;;;;;;;;;;;18.10;98.30;;;;;;5067228;28;20015;-63
2023/09/24 13:50:39;;;;;;;;;;;18.00;98.10;;;;;;5077304;28;20442;-63
2023/09/24 13:53:04;;;;;;;;;;;17.90;98.60;;;;;;5062904;28;19912;-64
2023/09/24 13:55:36;;;;;;;;;;;17.90;98.60;;;;;;5078781;28;19915;-63
2023/09/24 13:58:05;;;;;;;;;;;17.80;98.00;;;;;;5062175;28;20291;-64
2023/09/24 14:00:30;;;;;;;;;;;17.70;99.20;;;;;;5063714;28;19993;-64
2023/09/24 14:02:56;;;;;;;;;;;17.70;98.40;;;;;;5060158;28;19916;-64
2023/09/24 14:05:21;;;;;;;;;;;17.60;98.10;;;;;;5070523;28;20018;-64
2023/09/24 14:07:59;;;;;;;;;;;17.60;97.60;;;;;;5061973;28;19927;-62
2023/09/24 14:13:09;;;;;;;;;;;17.50;96.60;;;;;;5064648;28;19916;-63
2023/09/24 14:15:36;;;;;;;;;;;17.30;96.90;;;;;;5066972;28;20975;-64
2023/09/24 14:18:02;;;;;;;;;;;17.30;97.60;;;;;;5061893;28;20368;-63
2023/09/24 14:20:31;;;;;;;;;;;17.20;97.80;;;;;;5065070;28;19920;-63